sensor_id;sensor_type;location;lat;lon;timestamp;pressure;altitude;pressure_sealevel;temperature;humidity
54994;BME280;40891;47.242;8.648;2022-10-16T00:00:30;96318.13;;;15.15;100.00
54994;BME280;40891;47.242;8.648;2022-10-16T00:02:56;96316.38;;;15.18;100.00
54994;BME280;40891;47.242;8.648;2022-10-16T00:05:22;96328.56;;;15.15;100.00
54994;BME280;40891;47.242;8.648;2022-10-16T00:07:47;96325.28;;;15.02;100.00
54994;BME280;40891;47.242;8.648;2022-10-16T00:10:12;96328.59;;;15.00;100.00
54994;BME280;40891;47.242;8.648;2022-10-16T00:12:38;96327.97;;;14.96;100.00
54994;BME280;40891;47.242;8.648;2022-10-16T00:15:04;96323.34;;;14.93;100.00
54994;BME280;40891;47.242;8.648;2022-10-16T00:17:30;96323.56;;;14.89;100.00
54994;BME280;40891;47.242;8.648;2022-10-16T00:19:55;96325.09;;;14.90;100.00
54994;BME280;40891;47.242;8.648;2022-10-16T00:22:21;96328.38;;;14.89;100.00
54994;BME280;40891;47.242;8.648;2022-10-16T00:24:47;96334.19;;;14.85;100.00
54994;BME280;40891;47.242;8.648;2022-10-16T00:27:12;96341.13;;;14.90;100.00
54994;BME280;40891;47.242;8.648;2022-10-16T00:29:37;96330.59;;;14.99;100.00
54994;BME280;40891;47.242;8.648;2022-10-16T00:32:03;96328.38;;;15.04;100.00
54994;BME280;40891;47.242;8.648;2022-10-16T00:34:29;96329.63;;;15.17;100.00
54994;BME280;40891;47.242;8.648;2022-10-16T00:36:54;96318.69;;;15.19;100.00
54994;BME280;40891;47.242;8.648;2022-10-16T00:39:19;96328.09;;;15.02;100.00
54994;BME280;40891;47.242;8.648;2022-10-16T00:41:45;96328.94;;;15.08;100.00
54994;BME280;40891;47.242;8.648;2022-10-16T00:44:44;96325.47;;;15.27;100.00
54994;BME280;40891;47.242;8.648;2022-10-16T00:47:11;96331.63;;;15.31;100.00
54994;BME280;40891;47.242;8.648;2022-10-16T00:49:38;96337.84;;;15.21;100.00
54994;BME280;40891;47.242;8.648;2022-10-16T00:52:04;96340.03;;;15.17;100.00
54994;BME280;40891;47.242;8.648;2022-10-16T00:54:31;96339.06;;;15.20;100.00
54994;BME280;40891;47.242;8.648;2022-10-16T00:57:00;96339.34;;;15.22;100.00
54994;BME280;40891;47.242;8.648;2022-10-16T00:59:30;96354.91;;;15.23;100.00
54994;BME280;40891;47.242;8.648;2022-10-16T01:01:56;96340.91;;;15.23;100.00
54994;BME280;40891;47.242;8.648;2022-10-16T01:04:23;96341.88;;;15.20;100.00
54994;BME280;40891;47.242;8.648;2022-10-16T01:15:44;96348.84;;;14.95;100.00
54994;BME280;40891;47.242;8.648;2022-10-16T01:18:29;96343.03;;;14.98;100.00
54994;BME280;40891;47.242;8.648;2022-10-16T01:21:10;96344.88;;;15.02;100.00
54994;BME280;40891;47.242;8.648;2022-10-16T01:23:54;96345.56;;;14.96;100.00
54994;BME280;40891;47.242;8.648;2022-10-16T01:29:28;96340.91;;;14.93;100.00
54994;BME280;40891;47.242;8.648;2022-10-16T01:32:00;96347.50;;;14.90;100.00
54994;BME280;40891;47.242;8.648;2022-10-16T01:34:44;96343.81;;;14.84;100.00
54994;BME280;40891;47.242;8.648;2022-10-16T01:37:15;96343.25;;;14.80;100.00
54994;BME280;40891;47.242;8.648;2022-10-16T01:39:45;96337.94;;;14.82;100.00
54994;BME280;40891;47.242;8.648;2022-10-16T01:42:16;96343.63;;;14.73;100.00
54994;BME280;40891;47.242;8.648;2022-10-16T01:44:45;96348.63;;;14.69;100.00
54994;BME280;40891;47.242;8.648;2022-10-16T01:47:13;96339.94;;;14.67;100.00
54994;BME280;40891;47.242;8.648;2022-10-16T01:49:40;96344.19;;;14.63;100.00
54994;BME280;40891;47.242;8.648;2022-10-16T01:52:10;96348.41;;;14.58;100.00
54994;BME280;40891;47.242;8.648;2022-10-16T01:54:41;96343.19;;;14.51;100.00
54994;BME280;40891;47.242;8.648;2022-10-16T01:57:07;96359.41;;;14.47;100.00
54994;BME280;40891;47.242;8.648;2022-10-16T01:59:36;96360.06;;;14.42;100.00
54994;BME280;40891;47.242;8.648;2022-10-16T02:02:06;96356.19;;;14.40;100.00
54994;BME280;40891;47.242;8.648;2022-10-16T02:04:37;96362.00;;;14.36;100.00
54994;BME280;40891;47.242;8.648;2022-10-16T02:07:03;96359.66;;;14.35;100.00
54994;BME280;40891;47.242;8.648;2022-10-16T02:09:30;96354.53;;;14.33;100.00
54994;BME280;40891;47.242;8.648;2022-10-16T02:11:59;96365.28;;;14.25;100.00
54994;BME280;40891;47.242;8.648;2022-10-16T02:14:28;96364.06;;;14.26;100.00
54994;BME280;40891;47.242;8.648;2022-10-16T02:16:54;96359.91;;;14.22;100.00
54994;BME280;40891;47.242;8.648;2022-10-16T02:19:20;96359.41;;;14.23;100.00
54994;BME280;40891;47.242;8.648;2022-10-16T02:21:57;96365.59;;;14.27;100.00
54994;BME280;40891;47.242;8.648;2022-10-16T02:27:17;96357.75;;;14.17;100.00
54994;BME280;40891;47.242;8.648;2022-10-16T02:29:50;96352.53;;;14.10;100.00
54994;BME280;40891;47.242;8.648;2022-10-16T02:32:21;96361.56;;;14.05;100.00
54994;BME280;40891;47.242;8.648;2022-10-16T02:34:49;96355.34;;;14.01;100.00
54994;BME280;40891;47.242;8.648;2022-10-16T02:37:16;96350.75;;;13.98;100.00
54994;BME280;40891;47.242;8.648;2022-10-16T02:39:42;96350.91;;;13.94;100.00
54994;BME280;40891;47.242;8.648;2022-10-16T02:42:15;96362.88;;;13.95;100.00
54994;BME280;40891;47.242;8.648;2022-10-16T02:44:40;96368.44;;;13.95;100.00
54994;BME280;40891;47.242;8.648;2022-10-16T02:47:06;96365.38;;;13.93;100.00
54994;BME280;40891;47.242;8.648;2022-10-16T02:49:31;96365.06;;;13.91;100.00
54994;BME280;40891;47.242;8.648;2022-10-16T02:51:56;96354.19;;;13.93;100.00
54994;BME280;40891;47.242;8.648;2022-10-16T02:54:22;96357.28;;;13.95;100.00
54994;BME280;40891;47.242;8.648;2022-10-16T02:56:47;96364.06;;;14.03;100.00
54994;BME280;40891;47.242;8.648;2022-10-16T02:59:12;96360.34;;;13.97;100.00
54994;BME280;40891;47.242;8.648;2022-10-16T03:01:38;96358.50;;;13.94;100.00
54994;BME280;40891;47.242;8.648;2022-10-16T03:04:03;96345.84;;;13.84;100.00
54994;BME280;40891;47.242;8.648;2022-10-16T03:06:29;96339.44;;;13.92;100.00
54994;BME280;40891;47.242;8.648;2022-10-16T03:08:54;96350.47;;;13.87;100.00
54994;BME280;40891;47.242;8.648;2022-10-16T03:11:20;96355.19;;;13.81;100.00
54994;BME280;40891;47.242;8.648;2022-10-16T03:13:45;96351.81;;;13.77;100.00
54994;BME280;40891;47.242;8.648;2022-10-16T03:16:11;96356.06;;;13.87;100.00
54994;BME280;40891;47.242;8.648;2022-10-16T03:18:36;96359.19;;;13.89;100.00
54994;BME280;40891;47.242;8.648;2022-10-16T03:21:02;96355.78;;;14.08;100.00
54994;BME280;40891;47.242;8.648;2022-10-16T03:23:27;96357.34;;;14.09;100.00
54994;BME280;40891;47.242;8.648;2022-10-16T03:25:53;96359.28;;;14.18;100.00
54994;BME280;40891;47.242;8.648;2022-10-16T03:28:19;96359.34;;;14.09;100.00
54994;BME280;40891;47.242;8.648;2022-10-16T03:30:44;96355.00;;;14.08;100.00
54994;BME280;40891;47.242;8.648;2022-10-16T03:33:09;96371.19;;;14.04;100.00
54994;BME280;40891;47.242;8.648;2022-10-16T03:35:35;96375.41;;;13.99;100.00
54994;BME280;40891;47.242;8.648;2022-10-16T03:38:00;96384.75;;;13.96;100.00
54994;BME280;40891;47.242;8.648;2022-10-16T03:40:26;96386.09;;;14.01;100.00
54994;BME280;40891;47.242;8.648;2022-10-16T03:42:51;96392.19;;;13.99;100.00
54994;BME280;40891;47.242;8.648;2022-10-16T03:45:17;96396.41;;;13.95;100.00
54994;BME280;40891;47.242;8.648;2022-10-16T03:47:42;96389.75;;;13.92;100.00
54994;BME280;40891;47.242;8.648;2022-10-16T03:50:08;96388.66;;;13.90;100.00
54994;BME280;40891;47.242;8.648;2022-10-16T03:52:33;96393.38;;;13.84;100.00
54994;BME280;40891;47.242;8.648;2022-10-16T03:54:59;96404.25;;;13.82;100.00
54994;BME280;40891;47.242;8.648;2022-10-16T03:57:24;96402.22;;;13.82;100.00
54994;BME280;40891;47.242;8.648;2022-10-16T03:59:50;96398.00;;;13.87;100.00
54994;BME280;40891;47.242;8.648;2022-10-16T04:02:16;96397.69;;;13.85;100.00
54994;BME280;40891;47.242;8.648;2022-10-16T04:04:41;96395.53;;;13.89;100.00
54994;BME280;40891;47.242;8.648;2022-10-16T04:07:07;96393.50;;;14.13;100.00
54994;BME280;40891;47.242;8.648;2022-10-16T04:09:32;96395.28;;;14.01;100.00
54994;BME280;40891;47.242;8.648;2022-10-16T04:11:58;96397.84;;;14.14;100.00
54994;BME280;40891;47.242;8.648;2022-10-16T04:14:23;96392.31;;;14.05;100.00
54994;BME280;40891;47.242;8.648;2022-10-16T04:16:48;96388.91;;;14.01;100.00
54994;BME280;40891;47.242;8.648;2022-10-16T04:19:14;96410.41;;;14.18;100.00
54994;BME280;40891;47.242;8.648;2022-10-16T04:21:39;96402.13;;;14.24;100.00
54994;BME280;40891;47.242;8.648;2022-10-16T04:24:04;96394.03;;;14.26;100.00
54994;BME280;40891;47.242;8.648;2022-10-16T04:26:30;96400.00;;;14.19;100.00
54994;BME280;40891;47.242;8.648;2022-10-16T04:28:55;96400.56;;;14.23;100.00
54994;BME280;40891;47.242;8.648;2022-10-16T04:31:21;96401.16;;;14.27;100.00
54994;BME280;40891;47.242;8.648;2022-10-16T04:33:46;96405.47;;;14.37;100.00
54994;BME280;40891;47.242;8.648;2022-10-16T04:36:12;96414.34;;;14.36;100.00
54994;BME280;40891;47.242;8.648;2022-10-16T04:38:38;96410.59;;;14.39;100.00
54994;BME280;40891;47.242;8.648;2022-10-16T04:41:07;96411.06;;;14.37;100.00
54994;BME280;40891;47.242;8.648;2022-10-16T04:43:33;96419.81;;;14.30;100.00
54994;BME280;40891;47.242;8.648;2022-10-16T04:45:58;96426.34;;;14.27;100.00
54994;BME280;40891;47.242;8.648;2022-10-16T04:48:24;96422.53;;;14.15;100.00
54994;BME280;40891;47.242;8.648;2022-10-16T04:50:49;96420.50;;;14.16;100.00
54994;BME280;40891;47.242;8.648;2022-10-16T04:53:14;96420.09;;;14.08;100.00
54994;BME280;40891;47.242;8.648;2022-10-16T04:55:41;96417.47;;;14.05;100.00
54994;BME280;40891;47.242;8.648;2022-10-16T04:58:06;96435.06;;;13.96;100.00
54994;BME280;40891;47.242;8.648;2022-10-16T05:00:32;96422.03;;;13.93;100.00
54994;BME280;40891;47.242;8.648;2022-10-16T05:02:57;96426.06;;;13.92;100.00
54994;BME280;40891;47.242;8.648;2022-10-16T05:05:24;96424.72;;;13.88;100.00
54994;BME280;40891;47.242;8.648;2022-10-16T05:07:49;96431.53;;;13.87;100.00
54994;BME280;40891;47.242;8.648;2022-10-16T05:10:16;96433.13;;;13.79;100.00
54994;BME280;40891;47.242;8.648;2022-10-16T05:12:42;96431.56;;;13.78;100.00
54994;BME280;40891;47.242;8.648;2022-10-16T05:15:07;96429.44;;;14.05;100.00
54994;BME280;40891;47.242;8.648;2022-10-16T05:17:33;96428.03;;;14.01;100.00
54994;BME280;40891;47.242;8.648;2022-10-16T05:19:58;96427.16;;;13.95;100.00
54994;BME280;40891;47.242;8.648;2022-10-16T05:22:23;96421.13;;;13.87;100.00
54994;BME280;40891;47.242;8.648;2022-10-16T05:24:49;96419.75;;;13.83;100.00
54994;BME280;40891;47.242;8.648;2022-10-16T05:27:14;96420.41;;;13.78;100.00
54994;BME280;40891;47.242;8.648;2022-10-16T05:29:47;96426.19;;;13.74;100.00
54994;BME280;40891;47.242;8.648;2022-10-16T05:32:18;96419.50;;;13.72;100.00
54994;BME280;40891;47.242;8.648;2022-10-16T05:34:43;96416.88;;;13.68;100.00
54994;BME280;40891;47.242;8.648;2022-10-16T05:37:10;96419.38;;;13.66;100.00
54994;BME280;40891;47.242;8.648;2022-10-16T05:39:36;96423.44;;;13.65;100.00
54994;BME280;40891;47.242;8.648;2022-10-16T05:42:02;96426.56;;;13.58;100.00
54994;BME280;40891;47.242;8.648;2022-10-16T05:44:28;96420.75;;;13.71;100.00
54994;BME280;40891;47.242;8.648;2022-10-16T05:46:53;96424.16;;;13.75;100.00
54994;BME280;40891;47.242;8.648;2022-10-16T05:49:19;96428.00;;;13.77;100.00
54994;BME280;40891;47.242;8.648;2022-10-16T05:51:44;96430.03;;;13.77;100.00
54994;BME280;40891;47.242;8.648;2022-10-16T05:54:09;96421.91;;;13.88;100.00
54994;BME280;40891;47.242;8.648;2022-10-16T05:56:35;96425.91;;;13.96;100.00
54994;BME280;40891;47.242;8.648;2022-10-16T05:59:00;96429.44;;;14.05;100.00
54994;BME280;40891;47.242;8.648;2022-10-16T06:01:25;96427.19;;;14.18;100.00
54994;BME280;40891;47.242;8.648;2022-10-16T06:03:51;96436.44;;;14.24;100.00
54994;BME280;40891;47.242;8.648;2022-10-16T06:06:19;96435.84;;;14.20;100.00
54994;BME280;40891;47.242;8.648;2022-10-16T06:08:46;96436.13;;;14.31;100.00
54994;BME280;40891;47.242;8.648;2022-10-16T06:11:15;96442.03;;;14.34;100.00
54994;BME280;40891;47.242;8.648;2022-10-16T06:13:40;96441.25;;;14.33;100.00
54994;BME280;40891;47.242;8.648;2022-10-16T06:16:08;96449.78;;;14.29;100.00
54994;BME280;40891;47.242;8.648;2022-10-16T06:18:34;96454.63;;;14.29;100.00
54994;BME280;40891;47.242;8.648;2022-10-16T06:20:59;96461.72;;;14.39;100.00
54994;BME280;40891;47.242;8.648;2022-10-16T06:23:28;96457.69;;;14.40;100.00
54994;BME280;40891;47.242;8.648;2022-10-16T06:25:53;96461.97;;;14.50;100.00
54994;BME280;40891;47.242;8.648;2022-10-16T06:28:18;96472.09;;;14.48;100.00
54994;BME280;40891;47.242;8.648;2022-10-16T06:30:44;96470.41;;;14.41;100.00
54994;BME280;40891;47.242;8.648;2022-10-16T06:33:10;96467.75;;;14.47;100.00
54994;BME280;40891;47.242;8.648;2022-10-16T06:35:36;96473.81;;;14.45;100.00
54994;BME280;40891;47.242;8.648;2022-10-16T06:38:01;96475.97;;;14.50;100.00
54994;BME280;40891;47.242;8.648;2022-10-16T06:40:26;96468.78;;;14.73;100.00
54994;BME280;40891;47.242;8.648;2022-10-16T06:42:54;96464.56;;;14.77;100.00
54994;BME280;40891;47.242;8.648;2022-10-16T06:45:20;96472.75;;;14.66;100.00
54994;BME280;40891;47.242;8.648;2022-10-16T06:47:45;96478.56;;;14.77;100.00
54994;BME280;40891;47.242;8.648;2022-10-16T06:50:11;96470.44;;;14.79;100.00
54994;BME280;40891;47.242;8.648;2022-10-16T06:52:36;96477.91;;;14.82;100.00
54994;BME280;40891;47.242;8.648;2022-10-16T06:55:02;96482.84;;;14.87;100.00
54994;BME280;40891;47.242;8.648;2022-10-16T06:57:28;96486.88;;;14.86;100.00
54994;BME280;40891;47.242;8.648;2022-10-16T06:59:53;96481.41;;;14.92;100.00
54994;BME280;40891;47.242;8.648;2022-10-16T07:02:19;96490.50;;;15.02;98.63
54994;BME280;40891;47.242;8.648;2022-10-16T07:04:44;96492.72;;;15.12;98.19
54994;BME280;40891;47.242;8.648;2022-10-16T07:07:10;96493.13;;;15.20;96.76
54994;BME280;40891;47.242;8.648;2022-10-16T07:09:35;96499.72;;;15.31;96.26
54994;BME280;40891;47.242;8.648;2022-10-16T07:12:00;96503.59;;;15.34;96.05
54994;BME280;40891;47.242;8.648;2022-10-16T07:14:26;96509.88;;;15.43;97.04
54994;BME280;40891;47.242;8.648;2022-10-16T07:16:51;96513.88;;;15.51;97.29
54994;BME280;40891;47.242;8.648;2022-10-16T07:19:17;96504.44;;;15.63;96.60
54994;BME280;40891;47.242;8.648;2022-10-16T07:21:43;96510.78;;;15.64;96.23
54994;BME280;40891;47.242;8.648;2022-10-16T07:24:18;96510.38;;;15.86;96.88
54994;BME280;40891;47.242;8.648;2022-10-16T07:26:45;96525.59;;;15.79;96.59
54994;BME280;40891;47.242;8.648;2022-10-16T07:29:16;96532.34;;;15.87;97.36
54994;BME280;40891;47.242;8.648;2022-10-16T07:31:42;96529.28;;;15.85;99.39
54994;BME280;40891;47.242;8.648;2022-10-16T07:34:08;96528.56;;;15.90;99.58
54994;BME280;40891;47.242;8.648;2022-10-16T07:36:34;96535.06;;;15.96;97.88
54994;BME280;40891;47.242;8.648;2022-10-16T07:38:59;96533.88;;;16.17;98.16
54994;BME280;40891;47.242;8.648;2022-10-16T07:41:25;96537.53;;;16.23;97.48
54994;BME280;40891;47.242;8.648;2022-10-16T07:43:51;96544.00;;;16.29;96.68
54994;BME280;40891;47.242;8.648;2022-10-16T07:46:18;96539.53;;;16.38;95.86
54994;BME280;40891;47.242;8.648;2022-10-16T07:48:44;96557.25;;;16.44;94.47
54994;BME280;40891;47.242;8.648;2022-10-16T07:51:13;96549.97;;;16.52;94.93
54994;BME280;40891;47.242;8.648;2022-10-16T07:53:38;96545.09;;;16.67;95.19
54994;BME280;40891;47.242;8.648;2022-10-16T07:56:05;96548.91;;;16.84;94.91
54994;BME280;40891;47.242;8.648;2022-10-16T07:58:32;96556.72;;;16.94;93.20
54994;BME280;40891;47.242;8.648;2022-10-16T08:00:58;96563.31;;;16.91;91.46
54994;BME280;40891;47.242;8.648;2022-10-16T08:03:24;96569.00;;;16.97;91.08
54994;BME280;40891;47.242;8.648;2022-10-16T08:05:49;96568.00;;;17.20;90.07
54994;BME280;40891;47.242;8.648;2022-10-16T08:08:15;96565.09;;;17.29;89.51
54994;BME280;40891;47.242;8.648;2022-10-16T08:10:41;96566.97;;;17.58;88.40
54994;BME280;40891;47.242;8.648;2022-10-16T08:13:07;96563.75;;;17.65;87.21
54994;BME280;40891;47.242;8.648;2022-10-16T08:15:32;96580.81;;;17.41;89.31
54994;BME280;40891;47.242;8.648;2022-10-16T08:18:03;96584.88;;;17.00;91.55
54994;BME280;40891;47.242;8.648;2022-10-16T08:20:30;96584.13;;;17.20;90.95
54994;BME280;40891;47.242;8.648;2022-10-16T08:22:56;96584.09;;;17.40;90.68
54994;BME280;40891;47.242;8.648;2022-10-16T08:25:22;96580.59;;;17.45;89.42
54994;BME280;40891;47.242;8.648;2022-10-16T08:27:48;96582.78;;;17.35;89.03
54994;BME280;40891;47.242;8.648;2022-10-16T08:30:14;96585.44;;;17.44;88.67
54994;BME280;40891;47.242;8.648;2022-10-16T08:32:40;96579.09;;;17.49;87.95
54994;BME280;40891;47.242;8.648;2022-10-16T08:35:08;96585.03;;;17.51;86.62
54994;BME280;40891;47.242;8.648;2022-10-16T08:37:34;96583.00;;;17.32;88.54
54994;BME280;40891;47.242;8.648;2022-10-16T08:40:00;96602.25;;;16.98;89.21
54994;BME280;40891;47.242;8.648;2022-10-16T08:50:24;96582.69;;;21.07;68.49
54994;BME280;40891;47.242;8.648;2022-10-16T08:52:52;96567.50;;;23.94;60.03
54994;BME280;40891;47.242;8.648;2022-10-16T08:55:34;96572.47;;;26.20;50.95
54994;BME280;40891;47.242;8.648;2022-10-16T08:58:13;96573.59;;;26.04;49.61
54994;BME280;40891;47.242;8.648;2022-10-16T09:00:39;96573.88;;;26.26;50.16
54994;BME280;40891;47.242;8.648;2022-10-16T09:03:14;96560.72;;;27.91;46.34
54994;BME280;40891;47.242;8.648;2022-10-16T09:08:51;96563.97;;;31.26;37.42
54994;BME280;40891;47.242;8.648;2022-10-16T09:16:33;96559.94;;;33.86;30.54
54994;BME280;40891;47.242;8.648;2022-10-16T09:21:34;96563.88;;;34.48;28.11
54994;BME280;40891;47.242;8.648;2022-10-16T09:24:10;96567.56;;;34.30;27.16
54994;BME280;40891;47.242;8.648;2022-10-16T09:26:37;96569.41;;;34.06;27.47
54994;BME280;40891;47.242;8.648;2022-10-16T09:29:03;96571.09;;;34.09;27.61
54994;BME280;40891;47.242;8.648;2022-10-16T09:31:28;96568.59;;;33.77;27.22
54994;BME280;40891;47.242;8.648;2022-10-16T09:33:57;96566.75;;;34.67;26.09
54994;BME280;40891;47.242;8.648;2022-10-16T09:36:23;96577.47;;;34.96;26.49
54994;BME280;40891;47.242;8.648;2022-10-16T09:39:02;96571.38;;;35.11;25.69
54994;BME280;40891;47.242;8.648;2022-10-16T09:41:27;96574.22;;;35.51;25.58
54994;BME280;40891;47.242;8.648;2022-10-16T09:43:56;96572.59;;;36.11;26.53
54994;BME280;40891;47.242;8.648;2022-10-16T09:46:35;96578.47;;;35.50;27.43
54994;BME280;40891;47.242;8.648;2022-10-16T09:49:05;96571.03;;;35.99;26.12
54994;BME280;40891;47.242;8.648;2022-10-16T09:51:43;96570.09;;;35.54;26.89
54994;BME280;40891;47.242;8.648;2022-10-16T09:56:35;96566.78;;;36.65;24.73
54994;BME280;40891;47.242;8.648;2022-10-16T09:59:12;96557.16;;;37.07;23.41
54994;BME280;40891;47.242;8.648;2022-10-16T10:01:46;96572.22;;;37.38;22.95
54994;BME280;40891;47.242;8.648;2022-10-16T10:04:12;96567.25;;;37.87;22.60
54994;BME280;40891;47.242;8.648;2022-10-16T10:06:56;96561.44;;;37.18;23.42
54994;BME280;40891;47.242;8.648;2022-10-16T10:09:26;96573.94;;;36.53;24.81
54994;BME280;40891;47.242;8.648;2022-10-16T10:12:02;96580.16;;;37.38;23.26
54994;BME280;40891;47.242;8.648;2022-10-16T10:14:31;96568.75;;;37.65;22.28
54994;BME280;40891;47.242;8.648;2022-10-16T10:19:49;96567.75;;;37.26;23.05
54994;BME280;40891;47.242;8.648;2022-10-16T10:24:56;96563.94;;;37.70;22.69
54994;BME280;40891;47.242;8.648;2022-10-16T10:27:34;96566.63;;;37.66;22.57
54994;BME280;40891;47.242;8.648;2022-10-16T10:35:44;96559.84;;;39.10;20.79
54994;BME280;40891;47.242;8.648;2022-10-16T10:40:52;96555.34;;;38.32;22.11
54994;BME280;40891;47.242;8.648;2022-10-16T10:46:08;96543.69;;;40.16;20.00
54994;BME280;40891;47.242;8.648;2022-10-16T10:51:13;96528.97;;;41.02;18.91
54994;BME280;40891;47.242;8.648;2022-10-16T10:54:05;96538.75;;;40.48;19.37
54994;BME280;40891;47.242;8.648;2022-10-16T10:56:49;96535.00;;;40.32;19.25
54994;BME280;40891;47.242;8.648;2022-10-16T11:02:18;96533.84;;;40.23;20.41
54994;BME280;40891;47.242;8.648;2022-10-16T11:05:18;96533.28;;;39.84;19.39
54994;BME280;40891;47.242;8.648;2022-10-16T11:08:18;96532.84;;;39.89;19.59
54994;BME280;40891;47.242;8.648;2022-10-16T11:11:10;96535.66;;;40.30;20.14
54994;BME280;40891;47.242;8.648;2022-10-16T11:13:49;96526.34;;;41.39;19.32
54994;BME280;40891;47.242;8.648;2022-10-16T11:16:27;96522.25;;;42.81;17.09
54994;BME280;40891;47.242;8.648;2022-10-16T11:19:10;96528.41;;;42.01;17.78
54994;BME280;40891;47.242;8.648;2022-10-16T11:21:44;96521.41;;;43.14;16.81
54994;BME280;40891;47.242;8.648;2022-10-16T11:24:24;96517.28;;;43.21;16.72
54994;BME280;40891;47.242;8.648;2022-10-16T11:26:53;96521.81;;;44.05;16.11
54994;BME280;40891;47.242;8.648;2022-10-16T11:29:24;96516.56;;;43.03;16.49
54994;BME280;40891;47.242;8.648;2022-10-16T11:31:54;96512.13;;;43.59;16.52
54994;BME280;40891;47.242;8.648;2022-10-16T11:36:55;96503.13;;;43.15;16.10
54994;BME280;40891;47.242;8.648;2022-10-16T11:39:31;96495.84;;;42.97;16.39
54994;BME280;40891;47.242;8.648;2022-10-16T11:42:20;96497.47;;;41.96;17.39
54994;BME280;40891;47.242;8.648;2022-10-16T11:50:37;96482.19;;;43.62;16.80
54994;BME280;40891;47.242;8.648;2022-10-16T11:53:13;96477.16;;;43.45;16.42
54994;BME280;40891;47.242;8.648;2022-10-16T11:55:43;96484.22;;;43.58;16.76
54994;BME280;40891;47.242;8.648;2022-10-16T11:58:19;96473.88;;;42.78;17.05
54994;BME280;40891;47.242;8.648;2022-10-16T12:06:37;96474.44;;;42.75;17.21
54994;BME280;40891;47.242;8.648;2022-10-16T12:09:14;96473.09;;;43.15;17.57
54994;BME280;40891;47.242;8.648;2022-10-16T12:11:40;96472.88;;;43.09;17.26
54994;BME280;40891;47.242;8.648;2022-10-16T12:14:18;96470.78;;;43.70;16.20
54994;BME280;40891;47.242;8.648;2022-10-16T12:16:58;96479.34;;;42.88;17.19
54994;BME280;40891;47.242;8.648;2022-10-16T12:19:26;96477.38;;;43.71;16.83
54994;BME280;40891;47.242;8.648;2022-10-16T12:21:55;96477.78;;;42.85;17.48
54994;BME280;40891;47.242;8.648;2022-10-16T12:26:55;96464.84;;;44.53;15.51
54994;BME280;40891;47.242;8.648;2022-10-16T12:29:36;96461.69;;;44.04;16.05
54994;BME280;40891;47.242;8.648;2022-10-16T12:32:30;96456.41;;;44.00;16.10
54994;BME280;40891;47.242;8.648;2022-10-16T12:34:57;96451.47;;;43.04;16.63
54994;BME280;40891;47.242;8.648;2022-10-16T12:37:24;96452.75;;;42.99;16.81
54994;BME280;40891;47.242;8.648;2022-10-16T12:39:51;96451.09;;;43.14;16.65
54994;BME280;40891;47.242;8.648;2022-10-16T12:42:32;96449.22;;;43.22;16.60
54994;BME280;40891;47.242;8.648;2022-10-16T12:44:58;96443.88;;;43.56;16.54
54994;BME280;40891;47.242;8.648;2022-10-16T12:47:36;96446.22;;;43.20;16.93
54994;BME280;40891;47.242;8.648;2022-10-16T12:50:02;96451.53;;;43.26;16.38
54994;BME280;40891;47.242;8.648;2022-10-16T12:52:35;96437.50;;;43.03;16.85
54994;BME280;40891;47.242;8.648;2022-10-16T12:55:03;96440.44;;;43.22;17.86
54994;BME280;40891;47.242;8.648;2022-10-16T13:00:26;96444.41;;;42.19;18.78
54994;BME280;40891;47.242;8.648;2022-10-16T13:05:49;96437.47;;;41.60;18.07
54994;BME280;40891;47.242;8.648;2022-10-16T13:11:12;96448.41;;;40.34;18.95
54994;BME280;40891;47.242;8.648;2022-10-16T13:17:01;96451.75;;;39.43;19.99
54994;BME280;40891;47.242;8.648;2022-10-16T13:19:59;96446.66;;;38.89;20.06
54994;BME280;40891;47.242;8.648;2022-10-16T13:22:51;96450.31;;;37.15;20.72
54994;BME280;40891;47.242;8.648;2022-10-16T13:28:11;96447.34;;;38.62;21.36
54994;BME280;40891;47.242;8.648;2022-10-16T13:33:14;96439.22;;;40.71;18.56
54994;BME280;40891;47.242;8.648;2022-10-16T13:35:55;96440.16;;;41.22;18.20
54994;BME280;40891;47.242;8.648;2022-10-16T13:38:29;96430.97;;;42.67;17.52
54994;BME280;40891;47.242;8.648;2022-10-16T13:40:56;96441.69;;;41.90;19.32
54994;BME280;40891;47.242;8.648;2022-10-16T13:43:26;96436.97;;;40.85;20.31
54994;BME280;40891;47.242;8.648;2022-10-16T13:45:54;96444.88;;;40.67;20.44
54994;BME280;40891;47.242;8.648;2022-10-16T13:48:20;96438.69;;;42.58;18.00
54994;BME280;40891;47.242;8.648;2022-10-16T13:50:45;96442.25;;;42.75;17.65
54994;BME280;40891;47.242;8.648;2022-10-16T13:53:14;96447.25;;;43.09;17.76
54994;BME280;40891;47.242;8.648;2022-10-16T13:55:40;96443.28;;;43.01;17.50
54994;BME280;40891;47.242;8.648;2022-10-16T13:58:12;96450.91;;;42.53;18.64
54994;BME280;40891;47.242;8.648;2022-10-16T14:00:38;96443.06;;;42.22;19.64
54994;BME280;40891;47.242;8.648;2022-10-16T14:03:06;96453.06;;;42.70;17.66
54994;BME280;40891;47.242;8.648;2022-10-16T14:05:32;96453.41;;;42.60;17.82
54994;BME280;40891;47.242;8.648;2022-10-16T14:07:58;96455.41;;;42.74;18.15
54994;BME280;40891;47.242;8.648;2022-10-16T14:10:27;96447.94;;;43.08;17.54
54994;BME280;40891;47.242;8.648;2022-10-16T14:13:05;96451.75;;;42.93;18.55
54994;BME280;40891;47.242;8.648;2022-10-16T14:15:35;96444.63;;;43.17;17.88
54994;BME280;40891;47.242;8.648;2022-10-16T14:18:00;96455.97;;;42.70;18.08
54994;BME280;40891;47.242;8.648;2022-10-16T14:20:29;96453.22;;;42.39;19.39
54994;BME280;40891;47.242;8.648;2022-10-16T14:25:46;96450.38;;;40.90;19.95
54994;BME280;40891;47.242;8.648;2022-10-16T14:28:18;96455.25;;;41.17;19.68
54994;BME280;40891;47.242;8.648;2022-10-16T14:30:56;96458.34;;;40.90;19.84
54994;BME280;40891;47.242;8.648;2022-10-16T14:38:36;96456.25;;;38.92;20.99
54994;BME280;40891;47.242;8.648;2022-10-16T14:41:03;96456.94;;;38.26;22.61
54994;BME280;40891;47.242;8.648;2022-10-16T14:43:33;96459.25;;;36.61;25.68